Time;durP1;ratioP1;P1;durP2;ratioP2;P2;SDS_P1;SDS_P2;PMS_P1;PMS_P2;Temp;Humidity;BMP_temperature;BMP_pressure;BME280_temperature;BME280_humidity;BME280_pressure;Samples;Min_cycle;Max_cycle;Signal;HPM_P1;HPM_P2
2023/04/18 00:01:28;;;;;;;7.30;6.60;;;7.90;99.90;;;;;;5049923;28;20755;-73
2023/04/18 00:03:55;;;;;;;5.57;5.07;;;8.00;99.90;;;;;;5050372;28;21021;-73
2023/04/18 00:06:22;;;;;;;6.27;4.43;;;8.00;99.90;;;;;;5050433;28;20694;-73
2023/04/18 00:08:50;;;;;;;5.03;4.13;;;8.00;99.90;;;;;;5050011;28;20662;-74
2023/04/18 00:11:17;;;;;;;6.77;6.27;;;8.10;99.90;;;;;;5049909;28;20649;-74
2023/04/18 00:13:46;;;;;;;5.20;3.73;;;8.10;99.90;;;;;;5050013;28;20639;-73
2023/04/18 00:16:13;;;;;;;6.17;5.57;;;8.10;99.90;;;;;;5049830;28;20763;-74
2023/04/18 00:18:40;;;;;;;7.50;6.10;;;8.10;99.90;;;;;;5049618;28;20633;-76
2023/04/18 00:21:07;;;;;;;5.23;4.20;;;8.10;99.90;;;;;;5050307;28;20648;-74
2023/04/18 00:23:34;;;;;;;7.47;4.33;;;8.10;99.90;;;;;;5049519;28;20630;-73
2023/04/18 00:26:02;;;;;;;6.73;5.07;;;8.10;99.90;;;;;;5049700;28;20761;-74
2023/04/18 00:28:29;;;;;;;6.17;5.43;;;8.00;99.90;;;;;;5049250;28;20656;-74
2023/04/18 00:30:56;;;;;;;5.63;4.53;;;8.10;99.90;;;;;;5049866;28;20652;-74
2023/04/18 00:33:22;;;;;;;6.32;4.90;;;8.20;99.90;;;;;;5049916;28;20642;-74
2023/04/18 00:35:49;;;;;;;11.17;5.87;;;8.10;99.90;;;;;;5049969;28;20647;-74
2023/04/18 00:38:16;;;;;;;6.23;4.30;;;8.10;99.90;;;;;;5049198;28;20754;-74
2023/04/18 00:40:43;;;;;;;6.07;5.20;;;8.10;99.90;;;;;;5049377;28;20657;-74
2023/04/18 00:43:13;;;;;;;6.77;4.47;;;8.20;99.90;;;;;;5049272;28;20638;-74
2023/04/18 00:45:39;;;;;;;7.00;5.03;;;8.20;99.90;;;;;;5049409;28;20655;-74
2023/04/18 00:48:06;;;;;;;5.93;5.37;;;8.20;99.90;;;;;;5048890;28;20682;-74
2023/04/18 00:50:33;;;;;;;6.93;5.65;;;8.20;99.90;;;;;;5049399;28;20652;-74
2023/04/18 00:53:00;;;;;;;6.43;3.60;;;8.10;99.90;;;;;;5060887;28;20210;-74
2023/04/18 00:55:28;;;;;;;7.45;5.07;;;8.20;99.90;;;;;;5049432;28;20990;-74
2023/04/18 00:57:55;;;;;;;7.10;4.67;;;8.00;99.90;;;;;;5049282;28;20674;-74
2023/04/18 01:00:23;;;;;;;6.13;5.07;;;8.10;99.90;;;;;;5048302;28;20632;-74
2023/04/18 01:02:51;;;;;;;7.28;4.43;;;8.10;99.90;;;;;;5048944;28;20628;-74
2023/04/18 01:05:20;;;;;;;9.37;4.43;;;8.00;99.90;;;;;;5047644;28;20210;-74
2023/04/18 01:07:47;;;;;;;5.30;4.33;;;8.00;99.90;;;;;;5049107;28;20761;-74
2023/04/18 01:10:14;;;;;;;5.23;4.60;;;8.10;99.90;;;;;;5047724;28;20628;-75
2023/04/18 01:12:41;;;;;;;5.97;4.57;;;8.10;99.90;;;;;;5048856;28;20621;-74
2023/04/18 01:15:09;;;;;;;6.00;4.30;;;8.20;99.90;;;;;;5048525;28;20686;-74
2023/04/18 01:17:38;;;;;;;8.63;3.80;;;8.10;99.90;;;;;;5047418;28;20744;-74
2023/04/18 01:20:07;;;;;;;6.40;4.70;;;8.10;99.90;;;;;;5048212;28;20968;-75
2023/04/18 01:22:34;;;;;;;5.57;5.07;;;8.10;99.90;;;;;;5049055;28;20257;-74
2023/04/18 01:25:08;;;;;;;4.93;4.03;;;8.10;99.90;;;;;;5048657;28;20636;-74
2023/04/18 01:27:36;;;;;;;5.07;4.00;;;8.00;99.90;;;;;;5047954;28;20649;-74
2023/04/18 01:30:03;;;;;;;5.07;4.63;;;8.00;99.90;;;;;;5048162;28;20626;-74
2023/04/18 01:32:30;;;;;;;7.73;6.20;;;8.00;99.90;;;;;;5049351;28;20643;-74
2023/04/18 01:34:58;;;;;;;4.93;4.30;;;8.00;99.90;;;;;;5048376;28;20675;-74
2023/04/18 01:37:25;;;;;;;5.53;4.37;;;7.90;99.90;;;;;;5048349;28;21026;-74
2023/04/18 01:39:52;;;;;;;8.20;4.60;;;7.90;99.90;;;;;;5047737;28;21042;-74
2023/04/18 01:42:21;;;;;;;5.97;4.85;;;8.10;99.90;;;;;;5030483;28;20649;-74
2023/04/18 01:44:48;;;;;;;5.13;3.88;;;8.00;99.90;;;;;;5039568;28;20266;-74
2023/04/18 01:47:16;;;;;;;5.28;4.53;;;8.00;99.90;;;;;;5048171;28;20598;-74
2023/04/18 01:49:47;;;;;;;10.70;4.20;;;8.00;99.90;;;;;;5047016;28;20229;-74
2023/04/18 01:52:16;;;;;;;5.90;5.30;;;8.00;99.90;;;;;;5048214;28;20253;-74
2023/04/18 01:54:43;;;;;;;5.73;3.80;;;7.90;99.90;;;;;;5048408;28;20268;-74
2023/04/18 01:57:11;;;;;;;4.27;3.90;;;8.00;99.90;;;;;;5048235;28;20778;-74
2023/04/18 01:59:40;;;;;;;5.23;4.60;;;8.10;99.90;;;;;;5037616;28;20632;-74
2023/04/18 02:02:09;;;;;;;5.60;4.93;;;8.10;99.90;;;;;;5035655;28;20717;-74
2023/04/18 02:04:37;;;;;;;6.20;4.97;;;8.00;99.90;;;;;;5048107;28;20264;-74
2023/04/18 02:07:04;;;;;;;6.40;4.50;;;7.90;99.90;;;;;;5048022;28;21219;-74
2023/04/18 02:09:31;;;;;;;7.57;4.20;;;7.90;99.90;;;;;;5047436;28;20688;-75
2023/04/18 02:12:00;;;;;;;4.77;4.10;;;8.00;99.90;;;;;;5048501;28;21058;-75
2023/04/18 02:14:27;;;;;;;7.73;4.53;;;8.00;99.90;;;;;;5047990;28;20668;-74
2023/04/18 02:16:56;;;;;;;5.77;4.00;;;8.00;99.90;;;;;;5047148;28;20659;-74
2023/04/18 02:19:23;;;;;;;8.00;4.70;;;7.90;99.90;;;;;;5047452;28;20666;-74
2023/04/18 02:21:50;;;;;;;6.67;4.43;;;7.80;99.90;;;;;;5048044;28;20703;-75
2023/04/18 02:24:19;;;;;;;5.60;5.07;;;7.90;99.90;;;;;;5047376;28;20625;-74
2023/04/18 02:26:45;;;;;;;5.65;4.93;;;7.90;99.90;;;;;;5048147;28;20259;-75
2023/04/18 02:29:13;;;;;;;5.27;3.60;;;7.80;99.90;;;;;;5046698;28;20217;-75
2023/04/18 02:31:41;;;;;;;7.33;4.50;;;7.80;99.90;;;;;;5048135;28;20652;-75
2023/04/18 02:34:09;;;;;;;4.60;3.90;;;7.80;99.90;;;;;;5047667;28;20624;-75
2023/04/18 02:36:36;;;;;;;4.83;4.23;;;7.90;99.90;;;;;;5047618;28;21650;-75
2023/04/18 02:39:03;;;;;;;4.53;3.97;;;7.80;99.90;;;;;;5047376;28;20644;-75
2023/04/18 02:41:31;;;;;;;4.87;4.03;;;7.80;99.90;;;;;;5047435;28;20659;-74
2023/04/18 02:43:58;;;;;;;5.30;4.23;;;7.70;99.90;;;;;;5047480;28;20637;-75
2023/04/18 02:46:25;;;;;;;4.57;4.10;;;7.70;99.90;;;;;;5047395;28;20659;-75
2023/04/18 02:48:53;;;;;;;3.77;3.47;;;7.70;99.90;;;;;;5047176;28;21022;-74
2023/04/18 02:51:22;;;;;;;7.17;5.00;;;7.60;99.90;;;;;;5047513;28;20659;-74
2023/04/18 02:53:53;;;;;;;4.87;3.60;;;7.70;99.90;;;;;;5047350;28;20629;-75
2023/04/18 02:56:22;;;;;;;11.23;5.63;;;7.70;99.90;;;;;;5047127;28;20693;-74
2023/04/18 02:58:49;;;;;;;9.63;4.77;;;7.50;99.90;;;;;;5047921;28;20668;-74
2023/04/18 03:01:17;;;;;;;6.87;4.33;;;7.70;99.90;;;;;;5043847;28;20762;-75
2023/04/18 03:03:45;;;;;;;7.13;4.97;;;7.60;99.90;;;;;;5051276;28;20669;-74
2023/04/18 03:06:14;;;;;;;5.53;4.20;;;7.60;99.90;;;;;;5051676;28;20270;-75
2023/04/18 03:08:42;;;;;;;5.22;4.57;;;7.70;99.90;;;;;;5050490;28;20647;-75
2023/04/18 03:11:09;;;;;;;5.13;3.90;;;7.70;99.90;;;;;;5050870;28;20229;-74
2023/04/18 03:13:36;;;;;;;6.10;4.40;;;7.60;99.90;;;;;;5051074;28;20675;-74
2023/04/18 03:16:03;;;;;;;9.50;5.30;;;7.60;99.90;;;;;;5051316;28;21036;-75
2023/04/18 03:18:30;;;;;;;4.90;4.50;;;7.60;99.90;;;;;;5052370;28;20713;-75
2023/04/18 03:20:57;;;;;;;5.23;4.50;;;7.60;99.90;;;;;;5058453;28;20680;-75
2023/04/18 03:23:23;;;;;;;8.30;5.47;;;7.50;99.90;;;;;;5050518;28;20643;-74
2023/04/18 03:25:52;;;;;;;6.17;5.57;;;7.50;99.90;;;;;;5051288;28;20770;-75
2023/04/18 03:28:18;;;;;;;12.70;5.40;;;7.50;99.90;;;;;;5050591;28;20655;-74
2023/04/18 03:30:45;;;;;;;7.73;5.43;;;7.40;99.90;;;;;;5050564;28;20648;-74
2023/04/18 03:33:13;;;;;;;5.10;4.60;;;7.40;99.90;;;;;;5050923;28;20719;-74
2023/04/18 03:35:40;;;;;;;6.80;5.50;;;7.50;99.90;;;;;;5050861;28;20641;-74
2023/04/18 03:38:07;;;;;;;7.00;4.10;;;7.50;99.90;;;;;;5049896;28;21226;-74
2023/04/18 03:40:34;;;;;;;6.13;5.30;;;7.50;99.90;;;;;;5050647;28;20233;-74
2023/04/18 03:43:02;;;;;;;4.85;4.25;;;7.50;99.90;;;;;;5050984;28;21035;-74
2023/04/18 03:45:29;;;;;;;6.03;4.47;;;7.50;99.90;;;;;;5050353;28;20303;-74
2023/04/18 03:47:56;;;;;;;6.80;4.80;;;7.40;99.90;;;;;;5050520;28;20628;-74
2023/04/18 03:50:24;;;;;;;6.27;3.70;;;7.40;99.90;;;;;;5049957;28;20630;-75
2023/04/18 03:52:51;;;;;;;5.60;4.30;;;7.40;99.90;;;;;;5050726;28;20641;-74
2023/04/18 03:55:19;;;;;;;5.65;4.63;;;7.30;99.90;;;;;;5050785;28;21011;-74
2023/04/18 03:57:45;;;;;;;4.22;3.72;;;7.30;99.90;;;;;;5050124;28;20672;-74
2023/04/18 04:00:15;;;;;;;5.88;4.40;;;7.30;99.90;;;;;;5039216;28;20199;-74
2023/04/18 04:02:41;;;;;;;6.87;5.23;;;7.40;99.90;;;;;;5050724;28;20567;-74
2023/04/18 04:05:08;;;;;;;8.63;5.07;;;7.30;99.90;;;;;;5049914;28;20726;-74
2023/04/18 04:07:35;;;;;;;7.38;3.80;;;7.40;99.90;;;;;;5049708;28;20202;-74
2023/04/18 04:10:02;;;;;;;10.23;6.65;;;7.40;99.90;;;;;;5049784;28;20234;-74
2023/04/18 04:12:29;;;;;;;6.68;4.25;;;7.40;99.90;;;;;;5050162;28;20315;-74
2023/04/18 04:14:56;;;;;;;8.93;5.13;;;7.40;99.90;;;;;;5050402;28;20670;-74
2023/04/18 04:17:24;;;;;;;6.68;5.28;;;7.40;99.90;;;;;;5049511;28;20742;-74
2023/04/18 04:19:51;;;;;;;4.97;3.80;;;7.30;99.90;;;;;;5049463;28;20231;-74
2023/04/18 04:22:18;;;;;;;7.15;3.80;;;7.30;99.90;;;;;;5049968;28;20321;-76
2023/04/18 04:24:45;;;;;;;4.73;4.00;;;7.20;99.90;;;;;;5050395;28;20225;-74
2023/04/18 04:27:12;;;;;;;6.45;3.72;;;7.20;99.90;;;;;;5049575;28;20681;-74
2023/04/18 04:29:40;;;;;;;8.65;5.80;;;7.30;99.90;;;;;;5049195;28;20249;-74
2023/04/18 04:32:07;;;;;;;5.03;4.55;;;7.30;99.90;;;;;;5049588;28;20228;-75
2023/04/18 04:34:35;;;;;;;8.82;7.82;;;7.20;99.90;;;;;;5049723;28;20212;-75
2023/04/18 04:37:02;;;;;;;6.25;5.18;;;7.20;99.90;;;;;;5050203;28;20232;-75
2023/04/18 04:39:29;;;;;;;4.53;3.30;;;7.30;99.90;;;;;;5049401;28;20210;-75
2023/04/18 04:41:57;;;;;;;10.88;5.15;;;7.30;99.90;;;;;;5034730;28;20241;-77
2023/04/18 04:44:24;;;;;;;6.25;5.60;;;7.20;99.90;;;;;;5045554;28;20294;-76
2023/04/18 04:46:53;;;;;;;6.40;5.15;;;7.20;99.90;;;;;;5040348;28;20232;-76
2023/04/18 04:49:20;;;;;;;5.47;3.85;;;7.20;99.90;;;;;;5049177;28;20230;-76
2023/04/18 04:51:48;;;;;;;6.70;4.72;;;7.20;99.90;;;;;;5049644;28;20241;-75
2023/04/18 04:54:15;;;;;;;4.28;3.88;;;7.20;99.90;;;;;;5049595;28;20576;-76
2023/04/18 04:56:42;;;;;;;8.68;7.55;;;7.30;99.90;;;;;;5049154;28;20644;-75
2023/04/18 04:59:08;;;;;;;6.45;4.00;;;7.30;99.90;;;;;;5046278;28;20202;-75
2023/04/18 05:01:35;;;;;;;7.43;5.68;;;7.30;99.90;;;;;;5049169;28;20234;-75
2023/04/18 05:04:02;;;;;;;6.75;4.75;;;7.30;99.90;;;;;;5049400;28;20206;-75
2023/04/18 05:06:29;;;;;;;7.00;5.45;;;7.30;99.90;;;;;;5049477;28;20336;-75
2023/04/18 05:08:59;;;;;;;7.07;5.13;;;7.30;99.90;;;;;;5048344;28;20228;-73
2023/04/18 05:11:26;;;;;;;5.07;4.32;;;7.30;99.90;;;;;;5049020;28;20253;-72
2023/04/18 05:13:53;;;;;;;9.82;6.22;;;7.30;99.90;;;;;;5060115;28;20197;-73
2023/04/18 05:16:20;;;;;;;10.20;5.70;;;7.20;99.90;;;;;;5055581;28;20226;-73
2023/04/18 05:18:47;;;;;;;6.68;5.70;;;7.20;99.90;;;;;;5048133;28;20559;-73
2023/04/18 05:21:14;;;;;;;9.60;4.18;;;7.20;99.90;;;;;;5048467;28;20237;-72
2023/04/18 05:23:40;;;;;;;10.77;5.18;;;7.30;99.90;;;;;;5048820;28;20202;-73
2023/04/18 05:26:08;;;;;;;7.57;5.15;;;7.30;99.90;;;;;;5048607;28;20241;-73
2023/04/18 05:28:35;;;;;;;5.38;4.43;;;7.40;99.90;;;;;;5047663;28;20227;-73
2023/04/18 05:31:02;;;;;;;7.30;4.82;;;7.40;99.90;;;;;;5048667;28;20231;-72
2023/04/18 05:33:29;;;;;;;7.90;6.05;;;7.50;99.90;;;;;;5048430;28;20214;-72
2023/04/18 05:35:56;;;;;;;5.90;4.93;;;7.40;99.90;;;;;;5048927;28;20225;-73
2023/04/18 05:38:23;;;;;;;12.38;5.55;;;7.50;99.90;;;;;;5048135;28;20207;-72
2023/04/18 05:40:50;;;;;;;6.75;6.05;;;7.60;99.90;;;;;;5042178;28;20236;-72
2023/04/18 05:43:19;;;;;;;5.88;4.80;;;7.50;99.90;;;;;;5046060;28;20201;-71
2023/04/18 05:45:46;;;;;;;8.65;5.03;;;7.50;99.90;;;;;;5047943;28;20237;-71
2023/04/18 05:48:13;;;;;;;6.43;5.78;;;7.50;99.90;;;;;;5040561;28;20217;-71
2023/04/18 05:50:40;;;;;;;4.38;3.33;;;7.40;99.90;;;;;;5049029;28;20616;-71
2023/04/18 05:53:07;;;;;;;7.28;4.60;;;7.40;99.90;;;;;;5048118;28;20206;-71
2023/04/18 05:55:34;;;;;;;7.97;4.05;;;7.40;99.90;;;;;;5046240;28;20230;-71
2023/04/18 05:58:01;;;;;;;7.57;4.43;;;7.40;99.90;;;;;;5047170;28;20696;-71
2023/04/18 06:00:29;;;;;;;11.95;6.15;;;7.40;99.90;;;;;;5033041;28;20612;-71
2023/04/18 06:02:56;;;;;;;6.93;6.23;;;7.40;99.90;;;;;;5043050;28;20211;-71
2023/04/18 06:05:23;;;;;;;7.00;3.90;;;7.40;99.90;;;;;;5061080;28;21223;-71
2023/04/18 06:07:50;;;;;;;5.60;3.65;;;7.40;99.90;;;;;;5051524;28;20639;-71
2023/04/18 06:10:16;;;;;;;5.32;4.75;;;7.40;99.90;;;;;;5046686;28;20713;-71
2023/04/18 06:12:43;;;;;;;11.80;4.78;;;7.40;99.90;;;;;;5037656;28;20570;-71
2023/04/18 06:15:11;;;;;;;5.05;3.97;;;7.40;99.90;;;;;;5039515;28;20289;-71
2023/04/18 06:17:39;;;;;;;7.30;4.97;;;7.50;99.90;;;;;;5037849;28;20203;-71
2023/04/18 06:20:07;;;;;;;7.97;5.97;;;7.60;99.90;;;;;;5041062;28;20208;-71
2023/04/18 06:22:34;;;;;;;7.50;5.03;;;7.60;99.90;;;;;;5042471;28;20690;-71
2023/04/18 06:25:01;;;;;;;6.07;5.13;;;7.60;99.90;;;;;;5043283;28;20686;-71
2023/04/18 06:27:27;;;;;;;6.20;5.03;;;7.50;99.90;;;;;;5038098;28;20656;-71
2023/04/18 06:29:54;;;;;;;7.50;5.27;;;7.70;99.90;;;;;;5049175;28;21116;-71
2023/04/18 06:32:21;;;;;;;5.93;4.20;;;7.60;99.90;;;;;;5055480;28;20701;-71
2023/04/18 06:34:49;;;;;;;7.10;4.20;;;7.60;99.90;;;;;;5043556;28;20630;-71
2023/04/18 06:37:17;;;;;;;4.28;3.20;;;7.70;99.90;;;;;;5038237;28;20333;-71
2023/04/18 06:39:44;;;;;;;16.58;5.10;;;7.80;99.90;;;;;;5031632;28;20211;-71
2023/04/18 06:42:11;;;;;;;7.00;4.07;;;7.80;99.90;;;;;;5047251;28;20528;-71
2023/04/18 06:44:38;;;;;;;3.55;3.22;;;7.80;99.90;;;;;;5038611;28;20641;-71
2023/04/18 06:47:05;;;;;;;7.00;4.33;;;7.80;99.90;;;;;;5040174;28;20237;-71
2023/04/18 06:49:32;;;;;;;7.33;5.60;;;7.80;99.90;;;;;;5046447;28;20656;-71
2023/04/18 06:52:00;;;;;;;10.13;5.05;;;7.80;99.90;;;;;;5045469;28;20659;-71
2023/04/18 06:54:27;;;;;;;5.83;4.63;;;8.00;99.90;;;;;;5042060;28;20206;-71
2023/04/18 06:56:54;;;;;;;7.10;5.17;;;8.00;99.90;;;;;;5044024;28;20660;-71
2023/04/18 06:59:22;;;;;;;7.30;5.60;;;7.90;99.90;;;;;;5037504;28;20626;-71
2023/04/18 07:01:49;;;;;;;5.33;4.40;;;7.90;99.90;;;;;;5042469;28;20658;-71
2023/04/18 07:04:16;;;;;;;6.70;4.90;;;7.80;99.90;;;;;;5042589;28;20622;-71
2023/04/18 07:06:43;;;;;;;5.30;4.85;;;7.80;99.90;;;;;;5031619;28;20655;-71
2023/04/18 07:09:11;;;;;;;5.80;4.63;;;7.80;99.90;;;;;;5042797;28;20226;-71
2023/04/18 07:11:39;;;;;;;7.30;4.97;;;7.90;99.90;;;;;;5045406;28;20232;-71
2023/04/18 07:14:06;;;;;;;6.67;5.10;;;7.90;99.90;;;;;;5035973;28;20969;-71
2023/04/18 07:16:33;;;;;;;5.57;5.07;;;8.00;99.90;;;;;;5033296;28;20636;-71
2023/04/18 07:19:00;;;;;;;5.43;4.43;;;8.00;99.90;;;;;;5039356;28;20635;-71
2023/04/18 07:21:26;;;;;;;5.00;4.60;;;7.90;99.90;;;;;;5039150;28;20224;-71
2023/04/18 07:23:53;;;;;;;8.87;4.33;;;8.00;99.90;;;;;;5039736;28;20727;-71
2023/04/18 07:26:21;;;;;;;8.33;4.53;;;8.10;99.90;;;;;;5060111;28;20648;-71
2023/04/18 07:28:49;;;;;;;4.83;3.87;;;8.10;99.90;;;;;;5031614;28;21185;-71
2023/04/18 07:31:18;;;;;;;6.77;5.20;;;8.10;99.90;;;;;;5046374;28;20671;-71
2023/04/18 07:33:45;;;;;;;7.70;6.90;;;8.20;99.90;;;;;;5046336;28;20642;-71
2023/04/18 07:36:12;;;;;;;7.27;6.57;;;8.20;99.90;;;;;;5046288;28;20656;-71
2023/04/18 07:38:39;;;;;;;15.73;4.60;;;8.10;99.90;;;;;;5030316;28;21238;-71
2023/04/18 07:41:06;;;;;;;4.47;4.10;;;8.30;99.90;;;;;;5047297;28;20652;-71
2023/04/18 07:43:34;;;;;;;7.40;5.60;;;8.40;99.90;;;;;;5048424;28;20625;-71
2023/04/18 07:46:01;;;;;;;8.70;5.33;;;8.40;99.90;;;;;;5050029;28;20666;-73
2023/04/18 07:48:28;;;;;;;6.43;5.30;;;8.50;99.90;;;;;;5050108;28;20621;-72
2023/04/18 07:50:54;;;;;;;13.10;7.53;;;8.50;99.90;;;;;;5048296;28;20679;-73
2023/04/18 07:53:21;;;;;;;6.30;4.73;;;8.50;99.90;;;;;;5045748;28;20631;-73
2023/04/18 07:55:48;;;;;;;3.43;3.10;;;8.60;99.90;;;;;;5041111;28;20664;-73
2023/04/18 07:58:15;;;;;;;4.97;4.27;;;8.60;99.90;;;;;;5049839;28;21034;-73
2023/04/18 08:00:43;;;;;;;6.63;4.90;;;8.60;99.90;;;;;;5049695;28;20677;-73
2023/04/18 08:03:11;;;;;;;8.33;5.90;;;8.70;99.90;;;;;;5050492;28;20635;-73
2023/04/18 08:05:38;;;;;;;7.00;6.03;;;8.70;99.90;;;;;;5050528;28;20729;-73
2023/04/18 08:08:05;;;;;;;3.47;3.17;;;8.70;99.90;;;;;;5046744;28;20633;-72
2023/04/18 08:10:32;;;;;;;12.00;5.47;;;8.80;99.90;;;;;;5038632;28;20678;-73
2023/04/18 08:13:00;;;;;;;6.43;5.60;;;8.80;99.90;;;;;;5049945;28;21064;-72
2023/04/18 08:15:27;;;;;;;7.20;4.87;;;8.80;99.90;;;;;;5050059;28;20652;-73
2023/04/18 08:17:56;;;;;;;11.20;5.40;;;8.90;99.90;;;;;;5050442;28;20639;-73
2023/04/18 08:20:23;;;;;;;7.30;4.60;;;9.00;99.90;;;;;;5045785;28;20629;-73
2023/04/18 08:22:50;;;;;;;4.27;3.87;;;9.00;99.90;;;;;;5033482;28;21877;-73
2023/04/18 08:25:17;;;;;;;5.03;4.53;;;9.10;99.90;;;;;;5045938;28;20635;-73
2023/04/18 08:27:44;;;;;;;6.80;5.03;;;9.20;99.90;;;;;;5043267;28;20647;-73
2023/04/18 08:30:12;;;;;;;9.43;4.90;;;9.40;99.90;;;;;;5049066;28;20659;-72
2023/04/18 08:32:39;;;;;;;6.37;5.00;;;9.50;99.90;;;;;;5049899;28;20743;-72
2023/04/18 08:35:08;;;;;;;5.50;5.03;;;9.50;99.90;;;;;;5049995;28;20967;-73
2023/04/18 08:37:35;;;;;;;6.07;4.20;;;9.50;99.90;;;;;;5049821;28;20714;-73
2023/04/18 08:40:02;;;;;;;5.33;4.57;;;9.50;99.90;;;;;;5049620;28;20959;-73
2023/04/18 08:42:29;;;;;;;4.97;3.97;;;9.60;99.90;;;;;;5049290;28;20730;-73
2023/04/18 08:44:58;;;;;;;5.20;4.20;;;9.70;99.90;;;;;;5049206;28;21258;-73
2023/04/18 08:47:25;;;;;;;10.17;5.37;;;9.80;99.90;;;;;;5049718;28;20659;-73
2023/04/18 08:49:52;;;;;;;7.77;4.87;;;9.90;99.90;;;;;;5048658;28;20633;-73
2023/04/18 08:52:22;;;;;;;7.17;4.97;;;9.70;99.90;;;;;;5049363;28;20683;-73
2023/04/18 08:54:50;;;;;;;6.10;5.23;;;9.80;99.90;;;;;;5048393;28;20679;-73
2023/04/18 08:57:22;;;;;;;5.20;4.10;;;9.80;99.90;;;;;;5049146;28;20648;-73
2023/04/18 08:59:49;;;;;;;11.70;5.87;;;9.90;99.90;;;;;;5044828;28;20627;-73
2023/04/18 09:02:18;;;;;;;8.77;4.97;;;10.20;99.90;;;;;;5049214;28;20654;-73
2023/04/18 09:04:48;;;;;;;7.13;5.60;;;10.40;99.90;;;;;;5049113;28;20627;-73
2023/04/18 09:07:16;;;;;;;8.80;5.57;;;10.40;99.90;;;;;;5039161;28;20811;-73
2023/04/18 09:09:46;;;;;;;7.17;4.57;;;10.30;99.90;;;;;;5046456;28;20642;-73
2023/04/18 09:12:16;;;;;;;6.50;5.30;;;10.30;99.90;;;;;;5049083;28;21260;-73
2023/04/18 09:14:45;;;;;;;7.13;4.67;;;10.40;99.90;;;;;;5048802;28;21196;-73
2023/04/18 09:17:15;;;;;;;9.40;5.80;;;10.30;99.90;;;;;;5048563;28;21008;-73
2023/04/18 09:19:47;;;;;;;4.97;4.50;;;10.40;99.90;;;;;;5048028;28;20660;-73
2023/04/18 09:22:15;;;;;;;5.93;4.90;;;10.30;99.40;;;;;;5048952;28;20647;-73
2023/04/18 09:24:52;;;;;;;6.33;5.70;;;10.30;99.50;;;;;;5048685;28;21231;-72
2023/04/18 09:27:21;;;;;;;5.80;4.87;;;10.30;99.30;;;;;;5041949;28;21204;-73
2023/04/18 09:29:50;;;;;;;7.50;5.50;;;10.10;99.50;;;;;;5047756;28;20962;-73
2023/04/18 09:32:23;;;;;;;6.60;4.87;;;10.10;99.70;;;;;;5048797;28;20648;-73
2023/04/18 09:34:53;;;;;;;7.00;5.47;;;10.00;99.80;;;;;;5048503;28;20737;-73
2023/04/18 09:37:20;;;;;;;6.10;4.27;;;10.20;99.90;;;;;;5048812;28;20751;-73
2023/04/18 09:39:49;;;;;;;6.40;5.17;;;10.10;99.90;;;;;;5047790;28;20629;-72
2023/04/18 09:42:16;;;;;;;8.67;5.80;;;10.10;99.80;;;;;;5047628;28;20655;-72
2023/04/18 09:45:03;;;;;;;6.63;5.00;;;10.10;99.90;;;;;;5047411;28;20679;-72
2023/04/18 09:47:33;;;;;;;5.77;4.47;;;10.10;99.90;;;;;;5047525;28;20719;-73
2023/04/18 09:50:00;;;;;;;9.53;6.40;;;10.00;99.90;;;;;;5047243;28;21217;-72
2023/04/18 09:52:33;;;;;;;7.80;5.43;;;10.10;99.90;;;;;;5047162;28;20983;-72
2023/04/18 09:55:04;;;;;;;5.47;4.50;;;10.10;99.90;;;;;;5046007;28;20720;-72
2023/04/18 09:57:32;;;;;;;6.43;4.87;;;10.10;99.90;;;;;;5028664;28;20728;-72
2023/04/18 10:00:09;;;;;;;7.07;4.97;;;10.30;99.90;;;;;;5046755;28;21240;-72
2023/04/18 10:02:47;;;;;;;12.43;6.90;;;10.40;99.90;;;;;;5048470;28;20633;-72
2023/04/18 10:05:15;;;;;;;5.60;4.90;;;10.60;99.70;;;;;;5047499;28;20980;-72
2023/04/18 10:07:44;;;;;;;6.03;4.57;;;10.80;99.20;;;;;;5047575;28;20646;-72
2023/04/18 10:10:13;;;;;;;9.47;5.80;;;10.90;98.80;;;;;;5047035;28;20660;-73
2023/04/18 10:12:41;;;;;;;8.57;6.00;;;11.00;98.80;;;;;;5048248;28;20749;-72
2023/04/18 10:15:10;;;;;;;5.40;4.70;;;11.10;98.60;;;;;;5047798;28;20636;-73
2023/04/18 10:17:44;;;;;;;6.23;5.63;;;11.00;98.40;;;;;;5044981;28;20629;-72
2023/04/18 10:20:19;;;;;;;5.77;4.63;;;10.90;98.50;;;;;;5046477;28;20641;-72
2023/04/18 10:22:47;;;;;;;9.17;5.87;;;11.00;98.40;;;;;;5047945;28;20642;-72
2023/04/18 10:25:48;;;;;;;11.13;5.50;;;11.00;98.50;;;;;;5045674;28;20628;-73
2023/04/18 10:28:14;;;;;;;7.70;6.07;;;11.10;98.70;;;;;;5043019;28;21085;-72
2023/04/18 10:30:56;;;;;;;7.87;5.77;;;11.20;98.70;;;;;;5046539;28;20241;-72
2023/04/18 10:33:29;;;;;;;7.93;5.47;;;11.20;98.80;;;;;;5048575;28;20624;-73
2023/04/18 10:36:05;;;;;;;5.93;4.97;;;11.20;98.60;;;;;;5048470;28;21254;-72
2023/04/18 10:38:33;;;;;;;5.30;4.57;;;11.50;98.00;;;;;;5043035;28;20656;-74
2023/04/18 10:41:26;;;;;;;7.83;5.50;;;11.50;98.30;;;;;;5046876;28;20729;-74
2023/04/18 10:44:14;;;;;;;6.60;4.93;;;11.60;97.50;;;;;;5045374;28;20740;-74
2023/04/18 10:46:41;;;;;;;5.80;4.40;;;11.60;97.40;;;;;;5047687;28;20665;-73
2023/04/18 10:49:15;;;;;;;8.87;4.00;;;11.60;97.60;;;;;;5046772;28;20621;-73
2023/04/18 10:51:43;;;;;;;5.20;4.50;;;11.50;97.10;;;;;;5047655;28;20676;-73
2023/04/18 10:54:11;;;;;;;5.17;4.17;;;11.50;97.60;;;;;;5047847;28;21014;-74
2023/04/18 10:56:39;;;;;;;7.53;4.40;;;11.60;97.50;;;;;;5048255;28;20985;-74
2023/04/18 10:59:11;;;;;;;5.90;4.40;;;11.50;97.30;;;;;;5042616;28;21196;-72
2023/04/18 11:01:41;;;;;;;4.90;3.70;;;11.50;97.20;;;;;;5047769;28;20644;-72
2023/04/18 11:04:12;;;;;;;6.40;4.10;;;11.50;97.10;;;;;;5047113;28;20640;-72
2023/04/18 11:06:48;;;;;;;5.20;3.67;;;11.60;97.10;;;;;;5047406;28;21019;-72
2023/04/18 11:09:15;;;;;;;6.90;3.40;;;11.60;97.70;;;;;;5037877;28;21168;-73
2023/04/18 11:11:43;;;;;;;6.00;3.83;;;11.80;97.40;;;;;;5047725;28;20665;-73
2023/04/18 11:14:10;;;;;;;5.87;4.30;;;11.90;97.00;;;;;;5041995;28;20625;-73
2023/04/18 11:16:38;;;;;;;4.63;3.73;;;12.00;96.90;;;;;;5027351;28;21307;-73
2023/04/18 11:19:19;;;;;;;4.97;2.93;;;12.00;97.00;;;;;;5042420;28;20632;-72
2023/04/18 11:21:46;;;;;;;7.30;3.83;;;11.90;96.60;;;;;;5051241;28;20659;-71
2023/04/18 11:24:21;;;;;;;6.80;3.57;;;12.00;97.00;;;;;;5051116;28;20621;-71
2023/04/18 11:26:52;;;;;;;6.17;3.47;;;11.90;96.60;;;;;;5046628;28;21218;-71
2023/04/18 11:29:19;;;;;;;4.23;3.07;;;11.90;97.20;;;;;;5050117;28;21168;-71
2023/04/18 11:31:51;;;;;;;6.90;4.30;;;11.90;97.00;;;;;;5050953;28;20779;-71
2023/04/18 11:34:17;;;;;;;4.00;3.33;;;12.00;96.40;;;;;;5050674;28;20627;-71
2023/04/18 11:36:48;;;;;;;4.97;3.60;;;11.90;96.60;;;;;;5050834;28;20863;-71
2023/04/18 11:39:14;;;;;;;6.50;2.83;;;11.90;96.70;;;;;;5049847;28;20996;-71
2023/04/18 11:41:43;;;;;;;4.60;3.00;;;11.90;97.00;;;;;;5046761;28;20664;-72
2023/04/18 11:44:11;;;;;;;6.73;3.50;;;11.90;97.10;;;;;;5050585;28;20636;-71
2023/04/18 11:46:38;;;;;;;5.47;3.33;;;11.90;96.80;;;;;;5050849;28;20659;-71
2023/04/18 11:49:05;;;;;;;4.00;2.60;;;12.00;96.20;;;;;;5049462;28;20636;-71
2023/04/18 11:51:34;;;;;;;5.03;3.27;;;12.00;96.50;;;;;;5050174;28;20664;-71
2023/04/18 11:54:01;;;;;;;4.07;3.37;;;12.10;96.20;;;;;;5050495;28;20627;-71
2023/04/18 11:56:28;;;;;;;3.13;2.57;;;12.10;96.30;;;;;;5050495;28;20663;-71
2023/04/18 11:58:55;;;;;;;4.13;3.07;;;12.10;96.50;;;;;;5049735;28;20628;-71
2023/04/18 12:01:26;;;;;;;3.20;2.70;;;12.10;96.40;;;;;;5050374;28;20760;-71
2023/04/18 12:04:02;;;;;;;3.47;3.17;;;12.10;96.90;;;;;;5050260;28;20628;-71
2023/04/18 12:06:46;;;;;;;3.03;2.50;;;12.20;96.70;;;;;;5049856;28;20651;-71
2023/04/18 12:09:14;;;;;;;3.60;3.30;;;12.10;96.60;;;;;;5049692;28;20946;-71
2023/04/18 12:11:41;;;;;;;2.73;1.70;;;12.10;96.60;;;;;;5049887;28;20740;-71
2023/04/18 12:14:18;;;;;;;3.30;3.00;;;12.10;96.40;;;;;;5049618;28;20641;-71
2023/04/18 12:16:48;;;;;;;3.60;2.83;;;12.00;96.90;;;;;;5050095;28;20655;-71
2023/04/18 12:19:15;;;;;;;2.80;2.60;;;12.00;96.70;;;;;;5049566;28;20668;-71
2023/04/18 12:21:55;;;;;;;3.10;2.80;;;12.00;96.90;;;;;;5049639;28;21313;-71
2023/04/18 12:24:22;;;;;;;6.80;3.27;;;12.00;97.20;;;;;;5050302;28;20624;-71
2023/04/18 12:26:50;;;;;;;5.37;3.70;;;12.00;96.60;;;;;;5049305;28;20650;-71
2023/04/18 12:29:17;;;;;;;3.60;2.87;;;12.10;96.90;;;;;;5048443;28;20632;-72
2023/04/18 12:31:44;;;;;;;3.00;2.63;;;12.10;96.50;;;;;;5049879;28;20670;-70
2023/04/18 12:34:12;;;;;;;4.27;3.40;;;12.10;96.40;;;;;;5049421;28;20625;-71
2023/04/18 12:36:39;;;;;;;3.40;3.10;;;12.10;96.40;;;;;;5049449;28;21092;-71
2023/04/18 12:39:06;;;;;;;4.90;2.40;;;12.00;97.50;;;;;;5049153;28;20967;-71
2023/04/18 12:41:33;;;;;;;2.67;2.20;;;12.00;97.10;;;;;;5049389;28;20683;-71
2023/04/18 12:44:00;;;;;;;3.03;2.70;;;12.10;97.00;;;;;;5049668;28;20630;-71
2023/04/18 12:46:27;;;;;;;7.33;3.10;;;12.40;96.30;;;;;;5049698;28;20661;-71
2023/04/18 12:48:55;;;;;;;5.93;2.30;;;12.50;96.20;;;;;;5048658;28;20636;-71
2023/04/18 12:51:25;;;;;;;3.10;2.73;;;12.50;96.00;;;;;;5049114;28;20733;-71
2023/04/18 12:53:51;;;;;;;3.73;3.23;;;12.50;96.20;;;;;;5049663;28;20629;-71
2023/04/18 12:56:18;;;;;;;4.30;2.63;;;12.50;95.70;;;;;;5048784;28;20653;-71
2023/04/18 12:58:45;;;;;;;2.73;2.23;;;12.50;95.70;;;;;;5048941;28;20629;-71